createdAt,value
2022-07-25T00:01:23.414Z,17.50
2022-07-25T00:03:51.953Z,17.50
2022-07-25T00:06:20.131Z,17.50
2022-07-25T00:08:48.249Z,17.50
2022-07-25T00:11:16.278Z,17.50
2022-07-25T00:13:44.359Z,17.50
2022-07-25T00:16:12.428Z,17.40
2022-07-25T00:18:42.179Z,17.30
2022-07-25T00:21:10.364Z,17.30
2022-07-25T00:23:38.453Z,17.40
2022-07-25T00:26:06.851Z,17.40
2022-07-25T00:28:34.958Z,17.40
2022-07-25T00:31:03.092Z,17.30
2022-07-25T00:33:31.263Z,17.30
2022-07-25T00:36:00.933Z,17.30
2022-07-25T00:38:29.074Z,17.30
2022-07-25T00:40:57.163Z,17.20
2022-07-25T00:43:25.279Z,17.20
2022-07-25T00:45:53.375Z,17.20
2022-07-25T00:48:21.455Z,17.20
2022-07-25T00:50:49.544Z,17.10
2022-07-25T00:53:19.638Z,17.10
2022-07-25T00:55:47.895Z,17.10
2022-07-25T00:58:15.991Z,17.10
2022-07-25T01:00:44.073Z,17.10
2022-07-25T01:03:16.111Z,17.00
2022-07-25T01:05:47.127Z,16.90
2022-07-25T01:08:20.430Z,17.00
2022-07-25T01:10:49.640Z,16.90
2022-07-25T01:13:17.851Z,16.90
2022-07-25T01:15:46.008Z,16.80
2022-07-25T01:18:14.086Z,16.80
2022-07-25T01:20:43.630Z,16.80
2022-07-25T01:23:11.676Z,16.80
2022-07-25T01:25:39.837Z,16.60
2022-07-25T01:28:07.958Z,16.60
2022-07-25T01:30:36.056Z,16.60
2022-07-25T01:33:07.123Z,16.50
2022-07-25T01:35:38.987Z,16.50
2022-07-25T01:38:11.235Z,16.50
2022-07-25T01:40:39.918Z,16.50
2022-07-25T01:43:08.156Z,16.40
2022-07-25T01:45:36.432Z,16.50
2022-07-25T01:48:05.083Z,16.50
2022-07-25T01:50:33.203Z,16.40
2022-07-25T01:53:01.264Z,16.40
2022-07-25T01:55:30.724Z,16.40
2022-07-25T01:58:00.632Z,16.30
2022-07-25T02:00:28.771Z,16.20
2022-07-25T02:03:10.782Z,16.20
2022-07-25T02:05:38.875Z,16.20
2022-07-25T02:08:07.017Z,16.20
2022-07-25T02:10:36.509Z,16.10
2022-07-25T02:13:05.355Z,16.00
2022-07-25T02:15:33.400Z,16.00
2022-07-25T02:18:01.663Z,16.00
2022-07-25T02:20:29.774Z,16.00
2022-07-25T02:22:57.786Z,16.00
2022-07-25T02:25:25.885Z,16.00
2022-07-25T02:27:55.313Z,15.90
2022-07-25T02:30:23.728Z,15.80
2022-07-25T02:32:51.794Z,15.80
2022-07-25T02:35:20.066Z,15.80
2022-07-25T02:37:48.174Z,15.70
2022-07-25T02:40:16.298Z,15.70
2022-07-25T02:42:44.391Z,15.70
2022-07-25T02:45:13.912Z,15.70
2022-07-25T02:47:42.007Z,15.70
2022-07-25T02:50:14.572Z,15.80
2022-07-25T02:52:43.212Z,15.70
2022-07-25T02:55:12.460Z,15.60
2022-07-25T02:57:40.542Z,15.60
2022-07-25T03:00:10.035Z,15.60
2022-07-25T03:02:39.564Z,15.50
2022-07-25T03:05:09.188Z,15.50
2022-07-25T03:07:37.304Z,15.50
2022-07-25T03:10:10.827Z,15.60
2022-07-25T03:12:41.146Z,15.50
2022-07-25T03:15:10.408Z,15.60
2022-07-25T03:17:40.257Z,15.60
2022-07-25T03:20:10.075Z,15.70
2022-07-25T03:22:38.751Z,15.70
2022-07-25T03:25:15.858Z,15.70
2022-07-25T03:27:50.646Z,15.70
2022-07-25T03:30:18.764Z,15.70
2022-07-25T03:32:48.197Z,15.70
2022-07-25T03:35:16.547Z,15.70
2022-07-25T03:37:45.629Z,15.60
2022-07-25T03:40:14.367Z,15.60
2022-07-25T03:42:44.517Z,15.60
2022-07-25T03:45:12.756Z,15.50
2022-07-25T03:47:40.947Z,15.40
2022-07-25T03:50:11.617Z,15.40
2022-07-25T03:52:39.824Z,15.40
2022-07-25T03:55:09.565Z,15.30
2022-07-25T03:57:37.857Z,15.20
2022-07-25T04:00:07.987Z,15.20
2022-07-25T04:02:37.533Z,15.10
2022-07-25T04:05:07.055Z,15.10
2022-07-25T04:07:37.501Z,15.20
2022-07-25T04:10:07.456Z,15.20
2022-07-25T04:12:35.818Z,15.20
2022-07-25T04:15:04.644Z,15.30
2022-07-25T04:17:32.764Z,15.30
2022-07-25T04:20:00.929Z,15.20
2022-07-25T04:22:29.007Z,15.30
2022-07-25T04:24:58.488Z,15.20
2022-07-25T04:27:26.567Z,15.30
2022-07-25T04:29:54.876Z,15.30
2022-07-25T04:32:23.764Z,15.20
2022-07-25T04:34:54.774Z,15.10
2022-07-25T04:37:22.981Z,15.10
2022-07-25T04:39:51.101Z,15.20
2022-07-25T04:42:20.559Z,15.20
2022-07-25T04:44:48.699Z,15.30
2022-07-25T04:47:16.886Z,15.30
2022-07-25T04:49:45.040Z,15.30
2022-07-25T04:52:13.211Z,15.40
2022-07-25T04:54:41.353Z,15.40
2022-07-25T04:57:09.494Z,15.40
2022-07-25T04:59:38.981Z,15.40
2022-07-25T05:02:07.184Z,15.40
2022-07-25T05:04:35.323Z,15.50
2022-07-25T05:07:11.475Z,15.60
2022-07-25T05:09:39.923Z,15.70
2022-07-25T05:12:08.805Z,15.80
2022-07-25T05:14:38.439Z,15.90
2022-07-25T05:17:06.751Z,16.00
2022-07-25T05:19:35.055Z,16.10
2022-07-25T05:22:03.299Z,16.30
2022-07-25T05:24:34.560Z,16.40
2022-07-25T05:27:03.003Z,16.50
2022-07-25T05:29:31.376Z,16.60
2022-07-25T05:32:01.095Z,16.60
2022-07-25T05:34:29.292Z,16.70
2022-07-25T05:36:57.538Z,16.70
2022-07-25T05:39:25.735Z,16.80
2022-07-25T05:41:53.904Z,16.90
2022-07-25T05:44:21.991Z,17.00
2022-07-25T05:46:50.213Z,17.10
2022-07-25T05:49:19.915Z,17.10
2022-07-25T05:51:48.125Z,17.20
2022-07-25T05:54:16.320Z,17.30
2022-07-25T05:56:44.501Z,17.40
2022-07-25T05:59:12.674Z,17.40
2022-07-25T06:01:40.849Z,17.60
2022-07-25T06:04:09.353Z,17.60
2022-07-25T06:09:41.476Z,17.90
2022-07-25T06:12:09.626Z,18.00
2022-07-25T06:14:37.706Z,18.20
2022-07-25T06:17:05.910Z,18.30
2022-07-25T06:19:34.022Z,18.40
2022-07-25T06:22:02.234Z,18.50
2022-07-25T06:24:30.437Z,18.60
2022-07-25T06:26:59.854Z,18.70
2022-07-25T06:29:27.969Z,18.90
2022-07-25T06:31:56.138Z,19.10
2022-07-25T06:34:28.486Z,19.20
2022-07-25T06:36:57.383Z,19.30
2022-07-25T06:39:25.911Z,19.40
2022-07-25T06:41:54.030Z,19.60
2022-07-25T06:44:23.539Z,19.80
2022-07-25T06:46:51.703Z,20.00
2022-07-25T06:49:19.871Z,20.10
2022-07-25T06:51:48.043Z,20.20
2022-07-25T06:54:16.191Z,20.30
2022-07-25T06:56:44.332Z,20.50
2022-07-25T06:59:12.706Z,20.80
2022-07-25T07:01:42.235Z,21.00
2022-07-25T07:04:10.557Z,21.20
2022-07-25T07:06:39.869Z,21.30
2022-07-25T07:09:08.195Z,21.50
2022-07-25T07:11:36.326Z,21.60
2022-07-25T07:14:05.133Z,21.70
2022-07-25T07:16:33.643Z,21.90
2022-07-25T07:19:03.429Z,22.10
2022-07-25T07:21:31.798Z,22.20
2022-07-25T07:23:59.925Z,22.30
2022-07-25T07:26:28.200Z,22.40
2022-07-25T07:28:56.282Z,22.50
2022-07-25T07:31:24.578Z,22.60
2022-07-25T07:33:52.988Z,22.80
2022-07-25T07:36:22.488Z,23.00
2022-07-25T07:38:50.582Z,23.50
2022-07-25T07:41:18.726Z,23.90
2022-07-25T07:43:47.017Z,24.20
2022-07-25T07:46:15.280Z,24.50
2022-07-25T07:48:43.482Z,24.70
2022-07-25T07:51:11.659Z,24.90
2022-07-25T07:53:58.670Z,25.10
2022-07-25T07:56:26.761Z,25.40
2022-07-25T07:58:54.885Z,25.70
2022-07-25T08:01:23.100Z,25.80
2022-07-25T08:03:51.317Z,25.90
2022-07-25T08:06:19.450Z,26.00
2022-07-25T08:08:48.942Z,26.10
2022-07-25T08:11:17.083Z,26.10
2022-07-25T08:13:47.540Z,26.10
2022-07-25T08:16:16.049Z,26.20
2022-07-25T08:18:44.222Z,26.30
2022-07-25T08:21:12.479Z,26.40
2022-07-25T08:23:40.899Z,26.50
2022-07-25T08:26:10.343Z,26.70
2022-07-25T08:28:38.450Z,26.80
2022-07-25T08:31:07.222Z,27.10
2022-07-25T08:33:35.641Z,27.30
2022-07-25T08:36:04.028Z,27.40
2022-07-25T08:38:32.182Z,27.60
2022-07-25T08:41:01.294Z,27.60
2022-07-25T08:43:32.976Z,27.60
2022-07-25T08:46:03.467Z,27.50
2022-07-25T08:48:32.213Z,27.70
2022-07-25T08:51:01.194Z,27.90
2022-07-25T08:53:33.283Z,28.00
2022-07-25T08:56:04.309Z,28.10
2022-07-25T08:58:37.994Z,28.30
2022-07-25T09:01:06.943Z,28.40
2022-07-25T09:03:38.261Z,28.50
2022-07-25T09:06:16.640Z,28.50
2022-07-25T09:08:53.079Z,28.50
2022-07-25T09:11:29.042Z,28.60
2022-07-25T09:14:05.124Z,28.80
2022-07-25T09:16:36.307Z,29.00
2022-07-25T09:19:11.362Z,29.40
2022-07-25T09:21:40.830Z,29.60
2022-07-25T09:24:10.679Z,29.80
2022-07-25T09:26:49.844Z,30.00
2022-07-25T09:29:21.984Z,30.20
2022-07-25T09:31:50.896Z,30.20
2022-07-25T09:34:31.783Z,30.30
2022-07-25T09:36:59.974Z,30.20
2022-07-25T09:39:36.060Z,30.30
2022-07-25T09:42:14.862Z,30.40
2022-07-25T09:44:44.624Z,30.60
2022-07-25T09:47:14.106Z,30.80
2022-07-25T09:49:44.656Z,31.00
2022-07-25T09:52:13.543Z,31.40
2022-07-25T09:54:42.181Z,31.60
2022-07-25T09:57:10.963Z,31.70
2022-07-25T09:59:39.478Z,31.60
2022-07-25T10:02:12.068Z,31.30
2022-07-25T10:04:47.212Z,31.10
2022-07-25T10:07:20.412Z,31.10
2022-07-25T10:09:52.285Z,31.20
2022-07-25T10:12:22.090Z,31.30
2022-07-25T10:15:10.444Z,31.40
2022-07-25T10:17:41.499Z,31.50
2022-07-25T10:20:11.451Z,31.30
2022-07-25T10:22:55.811Z,30.80
2022-07-25T10:25:25.193Z,30.50
2022-07-25T10:28:00.788Z,29.90
2022-07-25T10:30:35.192Z,29.40
2022-07-25T10:33:06.586Z,29.20
2022-07-25T10:35:34.765Z,29.10
2022-07-25T10:38:05.756Z,29.10
2022-07-25T10:40:36.664Z,29.20
2022-07-25T10:43:18.953Z,29.20
2022-07-25T10:45:52.119Z,29.30
2022-07-25T10:48:26.180Z,29.40
2022-07-25T10:50:59.659Z,29.50
2022-07-25T10:53:35.768Z,29.50
2022-07-25T10:56:09.888Z,29.50
2022-07-25T10:58:50.065Z,29.40
2022-07-25T11:01:23.637Z,29.50
2022-07-25T11:03:55.200Z,29.70
2022-07-25T11:06:35.183Z,30.10
2022-07-25T11:09:04.430Z,30.50
2022-07-25T11:11:37.589Z,30.90
2022-07-25T11:14:06.672Z,31.20
2022-07-25T11:16:35.006Z,31.50
2022-07-25T11:19:05.165Z,31.80
2022-07-25T11:21:33.464Z,32.20
2022-07-25T11:24:01.577Z,32.40
2022-07-25T11:26:29.699Z,32.40
2022-07-25T11:28:57.838Z,32.30
2022-07-25T11:31:26.812Z,32.10
2022-07-25T11:33:55.043Z,32.10
2022-07-25T11:36:24.602Z,32.10
2022-07-25T11:38:53.534Z,32.30
2022-07-25T11:41:29.760Z,31.90
2022-07-25T11:43:57.942Z,31.80
2022-07-25T11:46:26.299Z,31.80
2022-07-25T11:49:05.907Z,31.90
2022-07-25T11:51:39.592Z,31.60
2022-07-25T11:54:13.265Z,31.90
2022-07-25T11:56:43.905Z,32.00
2022-07-25T11:59:12.665Z,32.00
2022-07-25T12:01:42.355Z,32.00
2022-07-25T12:04:15.653Z,31.90
2022-07-25T12:06:47.179Z,31.80
2022-07-25T12:09:19.245Z,31.80
2022-07-25T12:11:49.641Z,31.60
2022-07-25T12:14:18.273Z,31.70
2022-07-25T12:16:46.492Z,32.00
2022-07-25T12:19:23.078Z,32.20
2022-07-25T12:21:52.571Z,32.10
2022-07-25T12:24:20.787Z,31.70
2022-07-25T12:26:48.927Z,31.40
2022-07-25T12:29:17.053Z,31.20
2022-07-25T12:31:45.257Z,31.10
2022-07-25T12:34:14.034Z,31.00
2022-07-25T12:36:44.947Z,30.80
2022-07-25T12:39:14.494Z,30.70
2022-07-25T12:41:43.021Z,30.70
2022-07-25T12:44:11.755Z,31.00
2022-07-25T12:46:47.241Z,31.20
2022-07-25T12:49:17.350Z,31.40
2022-07-25T12:51:45.634Z,31.10
2022-07-25T12:54:21.652Z,31.10
2022-07-25T12:56:50.743Z,31.50
2022-07-25T12:59:18.981Z,32.00
2022-07-25T13:01:47.130Z,31.90
2022-07-25T13:04:15.329Z,31.80
2022-07-25T13:06:43.634Z,31.80
2022-07-25T13:09:11.801Z,31.80
2022-07-25T13:11:42.353Z,32.30
2022-07-25T13:14:10.468Z,32.50
2022-07-25T13:16:38.696Z,32.60
2022-07-25T13:19:07.268Z,32.80
2022-07-25T13:21:37.117Z,33.10
2022-07-25T13:24:05.786Z,33.40
2022-07-25T13:26:34.072Z,33.50
2022-07-25T13:29:06.374Z,33.20
2022-07-25T13:31:34.862Z,32.80
2022-07-25T13:34:03.261Z,32.60
2022-07-25T13:36:32.590Z,32.70
2022-07-25T13:39:00.761Z,32.90
2022-07-25T13:41:29.550Z,33.40
2022-07-25T13:43:57.884Z,33.30
2022-07-25T13:46:27.326Z,33.70
2022-07-25T13:48:56.680Z,33.80
2022-07-25T13:51:24.929Z,34.30
2022-07-25T13:53:53.106Z,34.20
2022-07-25T13:56:21.270Z,34.20
2022-07-25T13:58:49.461Z,33.40
2022-07-25T14:01:17.723Z,32.60
2022-07-25T14:03:47.482Z,32.60
2022-07-25T14:06:15.689Z,33.00
2022-07-25T14:08:43.906Z,33.60
2022-07-25T14:11:12.082Z,33.60
2022-07-25T14:13:40.187Z,33.00
2022-07-25T14:16:08.788Z,32.90
2022-07-25T14:18:37.066Z,32.80
2022-07-25T14:21:06.874Z,32.30
2022-07-25T14:23:35.090Z,32.10
2022-07-25T14:26:03.440Z,31.90
2022-07-25T14:28:31.638Z,31.60
2022-07-25T14:31:00.156Z,31.40
2022-07-25T14:33:28.313Z,31.50
2022-07-25T14:35:56.505Z,31.80
2022-07-25T14:38:26.018Z,32.00
2022-07-25T14:40:54.266Z,32.10
2022-07-25T14:43:22.445Z,32.50
2022-07-25T14:45:50.601Z,32.70
2022-07-25T14:48:18.751Z,32.50
2022-07-25T14:50:46.848Z,32.70
2022-07-25T14:53:15.001Z,32.50
2022-07-25T14:55:44.523Z,32.30
2022-07-25T14:58:13.817Z,32.20
2022-07-25T15:00:43.507Z,32.20
2022-07-25T15:03:11.721Z,32.00
2022-07-25T15:05:39.860Z,32.40
2022-07-25T15:08:08.025Z,32.50
2022-07-25T15:10:36.138Z,32.20
2022-07-25T15:13:29.867Z,31.70
2022-07-25T15:15:53.876Z,31.00
2022-07-25T15:18:22.013Z,30.10
2022-07-25T15:20:51.769Z,29.60
2022-07-25T15:23:20.836Z,29.10
2022-07-25T15:26:04.637Z,28.90
2022-07-25T15:28:36.550Z,28.70
2022-07-25T15:31:05.034Z,28.60
2022-07-25T15:33:33.399Z,28.60
2022-07-25T15:36:01.631Z,28.60
2022-07-25T15:38:30.840Z,28.40
2022-07-25T15:41:00.130Z,28.60
2022-07-25T15:43:28.305Z,28.70
2022-07-25T15:45:57.769Z,28.60
2022-07-25T15:48:28.773Z,28.40
2022-07-25T15:50:58.694Z,28.20
2022-07-25T15:53:26.875Z,28.00
2022-07-25T15:55:55.038Z,28.20
2022-07-25T15:58:23.243Z,28.20
2022-07-25T16:00:51.423Z,28.00
2022-07-25T16:03:21.476Z,27.80
2022-07-25T16:05:49.571Z,27.60
2022-07-25T16:08:18.235Z,27.60
2022-07-25T16:10:46.364Z,27.50
2022-07-25T16:13:14.518Z,27.30
2022-07-25T16:15:42.679Z,27.30
2022-07-25T16:18:11.164Z,27.20
2022-07-25T16:20:40.626Z,27.30
2022-07-25T16:23:08.839Z,27.00
2022-07-25T16:25:37.036Z,26.90
2022-07-25T16:28:06.610Z,26.80
2022-07-25T16:30:35.712Z,26.80
2022-07-25T16:33:04.155Z,26.70
2022-07-25T16:35:32.736Z,26.50
2022-07-25T16:38:02.284Z,26.50
2022-07-25T16:40:31.255Z,26.40
2022-07-25T16:42:59.708Z,26.40
2022-07-25T16:45:28.615Z,26.40
2022-07-25T16:47:56.850Z,26.30
2022-07-25T16:50:25.081Z,26.40
2022-07-25T16:52:53.622Z,26.30
2022-07-25T16:55:23.520Z,26.20
2022-07-25T16:57:51.711Z,26.20
2022-07-25T17:00:20.800Z,26.20
2022-07-25T17:02:49.638Z,26.30
2022-07-25T17:05:18.329Z,26.40
2022-07-25T17:07:48.625Z,26.30
2022-07-25T17:10:16.883Z,26.30
2022-07-25T17:12:46.388Z,26.30
2022-07-25T17:15:14.571Z,26.30
2022-07-25T17:17:42.787Z,26.30
2022-07-25T17:20:11.710Z,26.30
2022-07-25T17:22:39.858Z,26.30
2022-07-25T17:25:08.628Z,26.30
2022-07-25T17:27:37.386Z,26.30
2022-07-25T17:30:08.250Z,26.30
2022-07-25T17:32:36.527Z,26.20
2022-07-25T17:35:05.159Z,26.20
2022-07-25T17:37:33.388Z,26.20
2022-07-25T17:40:01.747Z,26.20
2022-07-25T17:42:29.922Z,26.30
2022-07-25T17:44:58.052Z,26.40
2022-07-25T17:47:27.628Z,26.30
2022-07-25T17:49:55.722Z,26.30
2022-07-25T17:52:23.866Z,26.20
2022-07-25T17:54:51.976Z,26.20
2022-07-25T17:57:20.356Z,26.10
2022-07-25T17:59:49.097Z,26.10
2022-07-25T18:02:17.367Z,26.10
2022-07-25T18:04:46.928Z,26.10
2022-07-25T18:07:15.116Z,25.80
2022-07-25T18:09:43.290Z,25.80
2022-07-25T18:12:11.409Z,25.80
2022-07-25T18:14:59.017Z,25.90
2022-07-25T18:17:27.122Z,25.90
2022-07-25T18:19:56.623Z,25.90
2022-07-25T18:22:24.805Z,26.10
2022-07-25T18:24:52.891Z,26.10
2022-07-25T18:27:21.073Z,26.00
2022-07-25T18:29:49.158Z,26.00
2022-07-25T18:32:17.220Z,25.80
2022-07-25T18:34:45.260Z,25.70
2022-07-25T18:37:14.729Z,25.60
2022-07-25T18:39:44.004Z,25.50
2022-07-25T18:42:12.132Z,25.50
2022-07-25T18:44:40.242Z,25.50
2022-07-25T18:47:08.644Z,25.50
2022-07-25T18:49:36.777Z,25.50
2022-07-25T18:52:05.327Z,25.50
2022-07-25T18:54:34.785Z,25.40
2022-07-25T18:57:04.383Z,25.30
2022-07-25T18:59:32.499Z,25.30
2022-07-25T19:02:00.871Z,25.30
2022-07-25T19:04:29.162Z,25.20
2022-07-25T19:06:57.364Z,25.20
2022-07-25T19:09:25.868Z,25.20
2022-07-25T19:11:56.488Z,25.20
2022-07-25T19:14:27.175Z,25.10
2022-07-25T19:16:57.387Z,25.10
2022-07-25T19:19:25.785Z,25.00
2022-07-25T19:21:54.198Z,24.90
2022-07-25T19:24:22.436Z,24.90
2022-07-25T19:26:50.783Z,24.70
2022-07-25T19:29:20.975Z,24.60
2022-07-25T19:31:49.063Z,24.50
2022-07-25T19:34:17.142Z,24.40
2022-07-25T19:36:46.408Z,24.40
2022-07-25T19:39:15.450Z,24.40
2022-07-25T19:41:47.016Z,24.30
2022-07-25T19:44:15.399Z,24.20
2022-07-25T19:46:45.020Z,24.00
2022-07-25T19:49:14.830Z,23.80
2022-07-25T19:51:42.981Z,23.80
2022-07-25T19:54:11.488Z,23.70
2022-07-25T19:56:39.778Z,23.60
2022-07-25T19:59:07.822Z,23.50
2022-07-25T20:01:36.116Z,23.40
2022-07-25T20:04:08.808Z,23.30
2022-07-25T20:06:37.486Z,23.20
2022-07-25T20:09:06.607Z,23.10
2022-07-25T20:11:34.958Z,23.10
2022-07-25T20:14:03.063Z,22.90
2022-07-25T20:16:31.178Z,22.80
2022-07-25T20:19:00.220Z,22.70
2022-07-25T20:21:29.803Z,22.70
2022-07-25T20:23:58.282Z,22.50
2022-07-25T20:26:26.562Z,22.40
2022-07-25T20:28:55.091Z,22.20
2022-07-25T20:31:25.222Z,22.00
2022-07-25T20:33:54.093Z,21.90
2022-07-25T20:36:22.265Z,21.70
2022-07-25T20:38:51.759Z,21.60
2022-07-25T20:41:19.889Z,21.40
2022-07-25T20:43:47.953Z,21.30
2022-07-25T20:46:16.100Z,21.20
2022-07-25T20:48:44.225Z,21.10
2022-07-25T20:51:13.194Z,21.00
2022-07-25T20:53:42.016Z,20.90
2022-07-25T20:56:11.419Z,20.80
2022-07-25T20:58:39.424Z,20.70
2022-07-25T21:01:07.562Z,20.50
2022-07-25T21:03:36.275Z,20.40
2022-07-25T21:06:04.493Z,20.30
2022-07-25T21:08:32.540Z,20.20
2022-07-25T21:11:01.251Z,20.20
2022-07-25T21:13:30.790Z,20.10
2022-07-25T21:16:00.947Z,20.00
2022-07-25T21:18:29.046Z,20.00
2022-07-25T21:20:57.221Z,19.80
2022-07-25T21:23:26.315Z,19.70
2022-07-25T21:25:54.380Z,19.60
2022-07-25T21:28:22.439Z,19.60
2022-07-25T21:30:51.886Z,19.60
2022-07-25T21:33:19.944Z,19.40
2022-07-25T21:35:53.176Z,19.40
2022-07-25T21:38:26.865Z,19.30
2022-07-25T21:40:55.898Z,19.10
2022-07-25T21:43:23.963Z,19.00
2022-07-25T21:45:53.423Z,19.00
2022-07-25T21:48:43.061Z,19.00
2022-07-25T21:51:13.541Z,19.00
2022-07-25T21:53:48.495Z,19.00
2022-07-25T21:56:16.984Z,19.00
2022-07-25T21:58:45.102Z,19.00
2022-07-25T22:01:14.660Z,18.90
2022-07-25T22:03:42.864Z,18.90
2022-07-25T22:06:11.135Z,18.90
2022-07-25T22:08:39.645Z,18.80
2022-07-25T22:11:38.113Z,18.80
2022-07-25T22:13:55.752Z,18.80
2022-07-25T22:16:25.529Z,18.80
2022-07-25T22:18:53.543Z,18.80
2022-07-25T22:21:21.726Z,18.80
2022-07-25T22:23:49.831Z,18.70
2022-07-25T22:26:17.875Z,18.70
2022-07-25T22:28:45.928Z,18.70
2022-07-25T22:31:14.114Z,18.50
2022-07-25T22:33:43.657Z,18.50
2022-07-25T22:36:12.087Z,18.40
2022-07-25T22:38:40.178Z,18.40
2022-07-25T22:41:11.246Z,18.30
2022-07-25T22:43:58.147Z,18.30
2022-07-25T22:46:27.629Z,18.30
2022-07-25T22:48:57.276Z,18.30
2022-07-25T22:51:26.327Z,18.30
2022-07-25T22:53:54.701Z,18.20
2022-07-25T22:56:23.491Z,18.20
2022-07-25T22:58:51.726Z,18.10
2022-07-25T23:01:20.743Z,18.00
2022-07-25T23:03:50.181Z,18.00
2022-07-25T23:06:21.320Z,18.00
2022-07-25T23:08:50.046Z,17.80
2022-07-25T23:11:18.551Z,17.70
2022-07-25T23:13:46.657Z,17.70
2022-07-25T23:16:14.851Z,17.70
2022-07-25T23:18:42.930Z,17.60
2022-07-25T23:21:11.273Z,17.60
2022-07-25T23:23:40.675Z,17.60
2022-07-25T23:26:08.777Z,17.50
2022-07-25T23:28:36.860Z,17.50
2022-07-25T23:31:05.038Z,17.50
2022-07-25T23:33:33.160Z,17.40
2022-07-25T23:36:01.223Z,17.30
2022-07-25T23:38:29.212Z,17.30
2022-07-25T23:40:58.628Z,17.40
2022-07-25T23:43:57.149Z,17.40
2022-07-25T23:46:14.760Z,17.50
2022-07-25T23:48:43.384Z,17.60
2022-07-25T23:51:11.451Z,17.60
2022-07-25T23:53:39.498Z,17.60
2022-07-25T23:56:09.417Z,17.60
2022-07-25T23:58:37.600Z,17.50
